首页
METAR-TAF:

METAR-TAF

机场 :

约翰内斯堡, 南非共和國

奥利弗·坦博国际机场

纬度: 26-08S, 经度: 028-14E, 海拔: 1694米

当前天气观测

该预报发布于54分钟前的06:00 UTC
风速7节,风向北转东北
温度 17°C
湿度 48%
气压 1027 hPa
能见度10公里或以上
1500米以下无云,无积雨云

METAR: FAOR 250600Z 02007KT CAVOK 17/06 Q1027 NOSIG

时间: 08:54 (06:54 UTC)

预报

该预报发布于2小时和54分钟前的04:00 UTC
预报有效从25日的 06点(UTC)到 26日的 12点(UTC)
风速3节,风向多变
能见度10公里或以上
1500米以下无云,无积雨云
成为
从 25日的 09点(UTC)到 25日的 11点(UTC)
风速7节,风向北转西北

TAF: FAOR 250400Z 2506/2612 VRB03KT CAVOK BECMG 2509/2511 34007KT TX24/2512Z TN11/2604Z

超过4000个机场的气象观测和天气预报(METAR&TAF报告)。

可查询的气象台以黄色和红色小点在地图上表示。

将鼠标移到小点上方,可查看气象台名称。

然后点击查看天气观测和预报。

如需切换地图:点击带黑十字的绿色按钮放大地图;点击带横线的绿色按钮缩小地图;或者点击绿色箭头查看邻近地区的地图。


METAR-TAF: